Time;durP1;ratioP1;P1;durP2;ratioP2;P2;SDS_P1;SDS_P2;PMS_P1;PMS_P2;Temp;Humidity;BMP_temperature;BMP_pressure;BME280_temperature;BME280_humidity;BME280_pressure;Samples;Min_cycle;Max_cycle;Signal;HPM_P1;HPM_P2
2024/02/17 00:02:02;;;;;;;8.77;5.18;;;;;;;9.50;100.00;101388.41;5098496;28;20028;-75
2024/02/17 00:04:28;;;;;;;8.82;4.05;;;;;;;9.52;100.00;101397.16;5098612;28;20065;-75
2024/02/17 00:06:54;;;;;;;8.93;4.68;;;;;;;9.52;100.00;101399.84;5098338;28;20031;-75
2024/02/17 00:09:20;;;;;;;9.95;4.25;;;;;;;9.51;100.00;101396.34;5098304;28;20077;-75
2024/02/17 00:11:46;;;;;;;7.70;4.57;;;;;;;9.43;100.00;101391.72;5081895;28;20024;-74
2024/02/17 00:14:11;;;;;;;11.70;4.82;;;;;;;9.27;100.00;101390.72;5098092;28;20470;-75
2024/02/17 00:16:37;;;;;;;9.75;4.38;;;;;;;9.00;100.00;101397.81;5115152;28;20028;-75
2024/02/17 00:19:04;;;;;;;8.63;3.72;;;;;;;8.82;100.00;101399.59;5098462;28;20069;-75
2024/02/17 00:21:30;;;;;;;6.55;3.40;;;;;;;8.62;100.00;101393.47;5098229;28;20024;-75
2024/02/17 00:23:55;;;;;;;7.85;3.60;;;;;;;8.49;100.00;101394.63;5098362;28;20049;-75
2024/02/17 00:26:21;;;;;;;6.32;3.75;;;;;;;8.32;100.00;101388.19;5097803;28;20137;-76
2024/02/17 00:28:47;;;;;;;9.15;4.03;;;;;;;8.11;100.00;101396.41;5097620;28;20132;-75
2024/02/17 00:31:13;;;;;;;5.47;3.08;;;;;;;8.03;100.00;101398.13;5097849;28;20476;-74
2024/02/17 00:33:38;;;;;;;9.63;3.75;;;;;;;8.07;100.00;101405.75;5079881;28;20034;-74
2024/02/17 00:36:05;;;;;;;8.63;3.53;;;;;;;8.29;100.00;101406.41;5081112;28;20039;-75
2024/02/17 00:38:31;;;;;;;5.63;3.30;;;;;;;8.48;100.00;101401.00;5080761;28;20077;-74
2024/02/17 00:40:56;;;;;;;8.95;3.50;;;;;;;8.53;100.00;101395.22;5114848;28;20020;-74
2024/02/17 00:43:23;;;;;;;10.45;3.80;;;;;;;8.54;100.00;101402.25;5098203;28;20372;-75
2024/02/17 00:45:49;;;;;;;8.85;3.53;;;;;;;8.46;100.00;101411.00;5114517;28;20475;-75
2024/02/17 00:48:15;;;;;;;7.20;3.40;;;;;;;8.44;100.00;101429.09;5097850;28;20031;-75
2024/02/17 00:50:41;;;;;;;5.93;3.58;;;;;;;8.45;100.00;101430.78;5081410;28;20111;-75
2024/02/17 00:53:07;;;;;;;10.77;4.25;;;;;;;8.46;100.00;101423.56;5097193;28;20020;-75
2024/02/17 00:55:33;;;;;;;10.05;4.07;;;;;;;8.46;100.00;101426.25;5097647;28;20114;-76
2024/02/17 00:58:01;;;;;;;7.38;3.85;;;;;;;8.50;100.00;101435.72;5080477;28;20043;-74
2024/02/17 01:00:27;;;;;;;6.72;3.35;;;;;;;8.56;100.00;101438.63;5080959;28;20126;-74
2024/02/17 01:02:52;;;;;;;6.22;3.60;;;;;;;8.62;100.00;101442.56;5080295;28;20172;-74
2024/02/17 01:05:18;;;;;;;8.02;3.95;;;;;;;8.65;100.00;101444.09;5114221;28;20034;-74
2024/02/17 01:07:44;;;;;;;7.78;4.60;;;;;;;8.68;100.00;101444.69;5114054;28;20030;-74
2024/02/17 01:10:09;;;;;;;13.95;4.63;;;;;;;8.66;100.00;101425.22;5096994;28;20032;-74
2024/02/17 01:12:35;;;;;;;14.07;6.43;;;;;;;8.65;100.00;101436.91;5080149;28;20426;-74
2024/02/17 01:15:01;;;;;;;13.35;6.95;;;;;;;8.69;100.00;101440.16;5080456;28;20047;-75
2024/02/17 01:17:27;;;;;;;10.50;5.50;;;;;;;8.73;100.00;101438.84;5096910;28;20035;-74
2024/02/17 01:19:52;;;;;;;12.38;5.45;;;;;;;8.74;100.00;101446.75;5097197;28;20028;-74
2024/02/17 01:22:18;;;;;;;10.25;4.65;;;;;;;8.73;100.00;101450.44;5097130;28;20024;-75
2024/02/17 01:24:43;;;;;;;6.82;4.75;;;;;;;8.77;100.00;101451.00;5097059;28;20024;-74
2024/02/17 01:27:09;;;;;;;10.38;5.32;;;;;;;8.75;100.00;101445.75;5096709;28;20205;-75
2024/02/17 01:29:35;;;;;;;11.20;4.57;;;;;;;8.78;100.00;101452.66;5096710;28;20088;-75
2024/02/17 01:32:01;;;;;;;8.82;4.93;;;;;;;8.80;100.00;101439.97;5096457;28;20038;-75
2024/02/17 01:34:27;;;;;;;11.85;6.30;;;;;;;8.80;100.00;101427.38;5114043;28;20084;-75
2024/02/17 01:36:52;;;;;;;11.40;4.90;;;;;;;8.80;100.00;101424.72;5096178;28;20027;-76
2024/02/17 01:39:19;;;;;;;9.07;5.43;;;;;;;8.81;100.00;101433.59;5097395;28;20034;-75
2024/02/17 01:41:45;;;;;;;11.73;5.97;;;;;;;8.82;100.00;101443.34;5097145;28;20031;-75
2024/02/17 01:44:11;;;;;;;10.82;5.20;;;;;;;8.85;100.00;101447.56;5096140;28;20464;-75
2024/02/17 01:46:37;;;;;;;12.75;5.22;;;;;;;8.87;100.00;101441.06;5096407;28;20035;-75
2024/02/17 01:49:04;;;;;;;9.93;4.13;;;;;;;8.89;100.00;101440.91;5096440;28;20079;-75
2024/02/17 01:51:30;;;;;;;10.63;4.22;;;;;;;8.92;100.00;101437.94;5079416;28;20030;-75
2024/02/17 01:53:56;;;;;;;8.18;4.25;;;;;;;8.91;100.00;101437.09;5079455;28;20031;-75
2024/02/17 01:56:22;;;;;;;5.68;3.80;;;;;;;8.89;100.00;101428.38;5079515;28;20605;-75
2024/02/17 01:58:48;;;;;;;6.70;3.72;;;;;;;8.85;100.00;101431.47;5079426;28;20027;-75
2024/02/17 02:01:14;;;;;;;8.27;3.63;;;;;;;8.78;100.00;101425.84;5079342;28;20032;-75
2024/02/17 02:03:40;;;;;;;5.88;3.35;;;;;;;8.68;100.00;101423.22;5079327;28;20467;-75
2024/02/17 02:06:06;;;;;;;8.30;4.03;;;;;;;8.52;100.00;101418.50;5096016;28;20023;-75
2024/02/17 02:08:32;;;;;;;8.77;3.08;;;;;;;8.29;100.00;101419.78;5096326;28;20463;-75
2024/02/17 02:11:00;;;;;;;4.13;2.55;;;;;;;8.14;100.00;101422.06;5079292;28;20096;-75
2024/02/17 02:13:26;;;;;;;4.75;2.40;;;;;;;8.00;100.00;101415.31;5112899;28;20468;-75
2024/02/17 02:15:52;;;;;;;7.05;2.72;;;;;;;7.99;100.00;101418.13;5095988;28;20047;-75
2024/02/17 02:18:18;;;;;;;4.78;2.40;;;;;;;7.87;100.00;101414.78;5095550;28;20085;-75
2024/02/17 02:20:44;;;;;;;6.35;2.90;;;;;;;7.81;100.00;101420.72;5096393;28;20027;-75
2024/02/17 02:23:10;;;;;;;7.25;2.67;;;;;;;7.73;100.00;101421.41;5095833;28;20096;-75
2024/02/17 02:25:37;;;;;;;5.68;2.88;;;;;;;7.61;100.00;101414.50;5112691;28;20062;-75
2024/02/17 02:28:03;;;;;;;8.13;2.28;;;;;;;7.68;100.00;101411.13;5095951;28;20035;-75
2024/02/17 02:30:28;;;;;;;4.75;2.28;;;;;;;7.81;100.00;101399.28;5096209;28;20024;-74
2024/02/17 02:32:58;;;;;;;7.28;2.28;;;;;;;7.93;100.00;101395.44;5078818;28;20449;-75
2024/02/17 02:35:23;;;;;;;6.80;2.72;;;;;;;8.07;100.00;101378.09;5095701;28;20077;-74
2024/02/17 02:37:49;;;;;;;9.02;2.80;;;;;;;8.12;100.00;101386.53;5095455;28;20023;-75
2024/02/17 02:40:15;;;;;;;10.90;2.85;;;;;;;8.11;100.00;101372.31;5095535;28;20019;-75
2024/02/17 02:42:41;;;;;;;5.68;2.33;;;;;;;8.07;100.00;101373.59;5095632;28;20115;-75
2024/02/17 02:45:07;;;;;;;9.68;2.45;;;;;;;8.01;100.00;101367.97;5095827;28;20452;-75
2024/02/17 02:47:33;;;;;;;6.68;2.85;;;;;;;7.99;100.00;101376.16;5113242;28;20049;-75
2024/02/17 02:49:59;;;;;;;6.38;2.35;;;;;;;7.92;100.00;101372.34;5095959;28;20027;-75
2024/02/17 02:52:26;;;;;;;4.53;2.50;;;;;;;7.87;100.00;101370.09;5112450;28;20028;-74
2024/02/17 02:54:55;;;;;;;4.57;2.50;;;;;;;7.85;100.00;101365.88;5079150;28;20126;-75
2024/02/17 02:57:20;;;;;;;7.28;3.05;;;;;;;7.83;100.00;101355.31;5080066;28;20457;-75
2024/02/17 02:59:46;;;;;;;10.98;2.65;;;;;;;7.70;100.00;101339.56;5100080;28;20036;-74
2024/02/17 03:02:12;;;;;;;5.50;3.03;;;;;;;7.62;100.00;101335.88;5099695;28;20085;-75
2024/02/17 03:04:37;;;;;;;8.07;2.85;;;;;;;7.51;100.00;101336.88;5099523;28;20078;-75
2024/02/17 03:07:03;;;;;;;8.98;2.95;;;;;;;7.54;100.00;101339.28;5116262;28;20391;-75
2024/02/17 03:09:29;;;;;;;5.05;2.85;;;;;;;7.67;100.00;101330.94;5082561;28;20406;-76
2024/02/17 03:11:54;;;;;;;13.95;3.85;;;;;;;7.84;100.00;101335.59;5116378;28;20028;-75
2024/02/17 03:14:20;;;;;;;13.20;4.03;;;;;;;8.06;100.00;101349.63;5099674;28;20032;-75
2024/02/17 03:16:46;;;;;;;12.75;4.97;;;;;;;8.24;100.00;101355.09;5100124;28;20115;-75
2024/02/17 03:19:12;;;;;;;9.95;4.40;;;;;;;8.37;100.00;101356.44;5082464;28;20039;-75
2024/02/17 03:21:39;;;;;;;12.60;5.00;;;;;;;8.45;100.00;101365.63;5116247;28;20028;-76
2024/02/17 03:24:06;;;;;;;10.43;4.38;;;;;;;8.50;100.00;101368.69;5116688;28;20040;-75
2024/02/17 03:26:32;;;;;;;11.63;4.03;;;;;;;8.51;100.00;101370.38;5099357;28;20031;-75
2024/02/17 03:28:57;;;;;;;7.20;3.70;;;;;;;8.49;100.00;101364.31;5082211;28;20020;-75
2024/02/17 03:31:23;;;;;;;10.90;4.35;;;;;;;8.48;100.00;101359.97;5099848;28;20034;-75
2024/02/17 03:33:54;;;;;;;8.82;4.38;;;;;;;8.51;100.00;101360.50;5099175;28;20035;-75
2024/02/17 03:36:20;;;;;;;6.40;4.20;;;;;;;8.50;100.00;101355.31;5099855;28;20028;-75
2024/02/17 03:38:47;;;;;;;13.65;4.10;;;;;;;8.47;100.00;101352.91;5081979;28;20038;-75
2024/02/17 03:41:12;;;;;;;8.60;4.00;;;;;;;8.40;100.00;101360.69;5065807;28;20027;-75
2024/02/17 03:43:38;;;;;;;9.38;5.03;;;;;;;8.38;100.00;101357.28;5098749;28;20039;-75
2024/02/17 03:46:04;;;;;;;6.28;3.03;;;;;;;8.32;100.00;101369.44;5098849;28;20038;-75
2024/02/17 03:48:29;;;;;;;8.43;3.15;;;;;;;8.15;100.00;101365.69;5082016;28;20035;-74
2024/02/17 03:50:55;;;;;;;6.88;2.83;;;;;;;7.86;100.00;101370.25;5081853;28;20032;-75
2024/02/17 03:53:21;;;;;;;7.20;3.10;;;;;;;7.73;100.00;101365.19;5098392;28;20155;-75
2024/02/17 03:55:46;;;;;;;6.25;3.90;;;;;;;7.72;100.00;101368.84;5098455;28;20064;-75
2024/02/17 03:58:12;;;;;;;8.07;3.63;;;;;;;7.65;100.00;101379.28;5115738;28;20028;-77
2024/02/17 04:00:38;;;;;;;8.63;4.03;;;;;;;7.72;100.00;101384.91;5081130;28;20053;-75
2024/02/17 04:03:04;;;;;;;6.82;3.80;;;;;;;7.80;100.00;101382.34;5115402;28;20028;-75
2024/02/17 04:05:30;;;;;;;7.35;3.50;;;;;;;7.84;100.00;101373.06;5098846;28;20038;-75
2024/02/17 04:07:55;;;;;;;5.25;2.80;;;;;;;7.91;100.00;101384.91;5081333;28;20028;-76
2024/02/17 04:10:22;;;;;;;5.90;3.35;;;;;;;8.00;100.00;101391.22;5115443;28;20045;-75
2024/02/17 04:12:48;;;;;;;6.78;3.22;;;;;;;8.05;100.00;101374.72;5114935;28;20092;-75
2024/02/17 04:15:13;;;;;;;5.78;3.00;;;;;;;8.13;100.00;101383.72;5098304;28;20027;-75
2024/02/17 04:17:40;;;;;;;7.18;3.47;;;;;;;8.25;100.00;101379.03;5098140;28;20039;-75
2024/02/17 04:20:07;;;;;;;8.68;2.90;;;;;;;8.37;100.00;101385.06;5098407;28;20078;-75
2024/02/17 04:22:33;;;;;;;8.38;2.90;;;;;;;8.50;100.00;101376.75;5114736;28;20055;-75
2024/02/17 04:24:59;;;;;;;5.47;2.88;;;;;;;8.61;100.00;101384.59;5098552;28;20121;-75
2024/02/17 04:27:24;;;;;;;5.22;2.47;;;;;;;8.72;100.00;101395.13;5097831;28;20031;-75
2024/02/17 04:29:50;;;;;;;8.02;2.95;;;;;;;8.80;100.00;101399.75;5097665;28;20031;-75
2024/02/17 04:32:16;;;;;;;5.75;2.47;;;;;;;8.86;100.00;101398.28;5097810;28;20031;-75
2024/02/17 04:34:41;;;;;;;6.05;2.55;;;;;;;8.91;100.00;101396.84;5097797;28;20104;-75
2024/02/17 04:37:07;;;;;;;6.15;3.13;;;;;;;8.94;100.00;101387.66;5081574;28;20028;-75
2024/02/17 04:39:33;;;;;;;5.45;2.63;;;;;;;8.98;100.00;101400.63;5115033;28;20035;-75
2024/02/17 04:41:59;;;;;;;7.60;2.42;;;;;;;9.04;100.00;101391.13;5097567;28;20557;-74
2024/02/17 04:44:24;;;;;;;4.20;2.25;;;;;;;9.11;100.00;101402.97;5097754;28;20111;-75
2024/02/17 04:46:50;;;;;;;5.35;2.13;;;;;;;9.18;100.00;101389.78;5080777;28;20084;-75
2024/02/17 04:49:16;;;;;;;3.83;1.60;;;;;;;9.24;100.00;101386.50;5097555;28;20092;-75
2024/02/17 04:51:41;;;;;;;5.30;1.75;;;;;;;9.27;100.00;101386.19;5097474;28;20036;-75
2024/02/17 04:54:07;;;;;;;4.20;1.45;;;;;;;9.34;100.00;101389.09;5080583;28;20078;-75
2024/02/17 04:56:32;;;;;;;5.05;1.85;;;;;;;9.39;100.00;101381.44;5080694;28;20042;-75
2024/02/17 04:58:58;;;;;;;2.58;1.42;;;;;;;9.45;100.00;101379.00;5097508;28;20028;-75
2024/02/17 05:01:24;;;;;;;2.72;1.70;;;;;;;9.51;100.00;101368.66;5097812;28;20024;-75
2024/02/17 05:03:50;;;;;;;2.10;1.25;;;;;;;9.56;100.00;101369.03;5080483;28;20383;-75
2024/02/17 05:06:17;;;;;;;4.93;1.50;;;;;;;9.56;100.00;101372.56;5097718;28;20036;-74
2024/02/17 05:08:45;;;;;;;1.98;1.20;;;;;;;9.59;100.00;101366.03;5113912;28;20538;-75
2024/02/17 05:11:12;;;;;;;2.85;2.03;;;;;;;9.59;100.00;101369.56;5097107;28;20076;-75
2024/02/17 05:13:38;;;;;;;4.63;1.60;;;;;;;9.54;100.00;101347.69;5114082;28;20024;-75
2024/02/17 05:16:05;;;;;;;5.88;2.05;;;;;;;9.48;100.00;101364.44;5097146;28;20474;-75
2024/02/17 05:18:31;;;;;;;4.18;1.55;;;;;;;9.46;100.00;101369.94;5097368;28;20126;-75
2024/02/17 05:20:57;;;;;;;5.28;1.88;;;;;;;9.50;100.00;101364.25;5096843;28;20379;-74
2024/02/17 05:23:22;;;;;;;2.65;1.40;;;;;;;9.55;100.00;101357.47;5096834;28;20038;-75
2024/02/17 05:25:49;;;;;;;7.88;2.95;;;;;;;9.63;100.00;101370.06;5096630;28;20050;-75
2024/02/17 05:28:15;;;;;;;2.65;1.70;;;;;;;9.68;100.00;101362.41;5097020;28;20030;-74
2024/02/17 05:30:41;;;;;;;8.07;2.83;;;;;;;9.69;100.00;101356.91;5096601;28;20027;-75
2024/02/17 05:33:07;;;;;;;6.40;2.22;;;;;;;9.69;100.00;101351.53;5096685;28;20020;-74
2024/02/17 05:35:33;;;;;;;7.50;3.10;;;;;;;9.69;100.00;101350.69;5096681;28;20472;-75
2024/02/17 05:37:59;;;;;;;6.53;2.50;;;;;;;9.67;100.00;101342.78;5096788;28;20039;-75
2024/02/17 05:40:25;;;;;;;5.72;2.72;;;;;;;9.70;100.00;101344.31;5096772;28;20028;-75
2024/02/17 05:42:50;;;;;;;5.07;2.53;;;;;;;9.66;100.00;101335.72;5115077;28;20074;-74
2024/02/17 05:45:16;;;;;;;2.05;1.67;;;;;;;9.64;100.00;101324.28;5096386;28;20032;-75
2024/02/17 05:47:42;;;;;;;1.95;1.50;;;;;;;9.66;100.00;101318.78;5096516;28;20031;-74
2024/02/17 05:50:08;;;;;;;2.47;1.67;;;;;;;9.67;100.00;101317.78;5113622;28;20028;-75
2024/02/17 05:52:33;;;;;;;2.65;1.63;;;;;;;9.68;100.00;101317.63;5113215;28;20118;-75
2024/02/17 05:54:59;;;;;;;1.90;1.50;;;;;;;9.69;100.00;101311.25;5079675;28;20031;-75
2024/02/17 05:57:26;;;;;;;1.90;1.23;;;;;;;9.70;100.00;101309.41;5096792;28;20031;-75
2024/02/17 05:59:52;;;;;;;2.53;1.67;;;;;;;9.67;100.00;101304.34;5096850;28;20445;-75
2024/02/17 06:02:18;;;;;;;2.42;1.60;;;;;;;9.69;100.00;101303.19;5114645;28;20032;-74
2024/02/17 06:04:44;;;;;;;1.95;1.55;;;;;;;9.70;100.00;101309.41;5113128;28;20038;-75
2024/02/17 06:07:09;;;;;;;2.70;1.50;;;;;;;9.70;100.00;101304.03;5113354;28;20027;-75
2024/02/17 06:09:35;;;;;;;1.92;1.30;;;;;;;9.74;100.00;101304.53;5079243;28;20085;-75
2024/02/17 06:12:01;;;;;;;3.63;1.15;;;;;;;9.77;100.00;101307.78;5096017;28;20027;-75
2024/02/17 06:14:26;;;;;;;3.38;1.27;;;;;;;9.81;100.00;101300.25;5096083;28;20032;-75
2024/02/17 06:16:52;;;;;;;1.83;1.02;;;;;;;9.84;100.00;101308.84;5113312;28;20031;-75
2024/02/17 06:22:18;;;;;;;2.05;1.00;;;;;;;9.86;100.00;101292.56;5019635;28;20029;-74
2024/02/17 06:24:44;;;;;;;1.45;1.08;;;;;;;9.90;100.00;101284.03;5079088;28;20050;-75
2024/02/17 06:27:11;;;;;;;2.63;1.40;;;;;;;9.97;100.00;101280.69;5112624;28;20049;-75
2024/02/17 06:29:36;;;;;;;1.45;0.98;;;;;;;10.00;100.00;101283.06;5113013;28;20024;-74
2024/02/17 06:32:03;;;;;;;0.93;0.80;;;;;;;10.04;100.00;101290.66;5095224;28;20379;-75
2024/02/17 06:34:28;;;;;;;1.38;1.02;;;;;;;10.10;100.00;101278.41;5112595;28;20023;-74
2024/02/17 06:36:54;;;;;;;1.27;1.00;;;;;;;10.12;100.00;101266.50;5079198;28;20034;-75
2024/02/17 06:39:19;;;;;;;1.00;0.90;;;;;;;10.17;100.00;101266.03;5079035;28;20032;-75
2024/02/17 06:41:45;;;;;;;1.25;0.95;;;;;;;10.20;100.00;101252.28;5095480;28;20054;-75
2024/02/17 06:44:11;;;;;;;1.33;0.98;;;;;;;10.21;100.00;101255.78;5078946;28;20046;-75
2024/02/17 06:46:36;;;;;;;1.75;1.23;;;;;;;10.19;100.00;101261.34;5095704;28;20031;-74
2024/02/17 06:49:02;;;;;;;1.83;0.88;;;;;;;10.17;100.00;101265.19;5095422;28;20028;-74
2024/02/17 06:51:28;;;;;;;1.35;1.13;;;;;;;10.14;100.00;101263.69;5078835;28;20149;-74
2024/02/17 06:53:53;;;;;;;1.73;1.08;;;;;;;10.11;100.00;101264.84;5078859;28;20027;-75
2024/02/17 06:56:19;;;;;;;2.22;1.20;;;;;;;10.10;100.00;101265.81;5095329;28;20464;-76
2024/02/17 06:58:45;;;;;;;1.38;1.02;;;;;;;10.05;100.00;101265.44;5079234;28;20036;-75
2024/02/17 07:01:10;;;;;;;1.30;1.00;;;;;;;10.02;100.00;101265.78;5112891;28;20077;-74
2024/02/17 07:03:36;;;;;;;1.38;1.00;;;;;;;10.00;100.00;101262.44;5095866;28;20036;-75
2024/02/17 07:06:02;;;;;;;1.02;0.70;;;;;;;10.01;100.00;101261.41;5095784;28;20118;-75
2024/02/17 07:08:29;;;;;;;0.65;0.60;;;;;;;10.01;100.00;101260.59;5096093;28;20020;-75
2024/02/17 07:10:54;;;;;;;0.55;0.55;;;;;;;9.99;100.00;101258.03;5112237;28;20394;-75
2024/02/17 07:13:20;;;;;;;1.02;0.73;;;;;;;9.97;100.00;101259.19;5112195;28;20153;-76
2024/02/17 07:15:46;;;;;;;0.60;0.60;;;;;;;9.95;100.00;101259.38;5078511;28;20532;-75
2024/02/17 07:18:14;;;;;;;0.70;0.70;;;;;;;9.91;100.00;101255.31;5094952;28;20081;-75
2024/02/17 07:20:41;;;;;;;0.77;0.70;;;;;;;9.94;100.00;101257.69;5095658;28;20039;-76
2024/02/17 07:23:07;;;;;;;1.02;0.73;;;;;;;9.96;100.00;101254.84;5111398;28;20391;-76
2024/02/17 07:25:35;;;;;;;2.60;1.50;;;;;;;9.96;100.00;101260.22;5095556;28;20030;-75
2024/02/17 07:28:02;;;;;;;2.55;1.70;;;;;;;9.95;100.00;101248.63;5095870;28;20360;-75
2024/02/17 07:30:28;;;;;;;5.57;2.88;;;;;;;9.94;100.00;101257.69;5095325;28;20032;-76
2024/02/17 07:32:54;;;;;;;6.45;3.42;;;;;;;10.01;100.00;101264.09;5078377;28;20034;-76
2024/02/17 07:35:21;;;;;;;6.25;3.92;;;;;;;10.00;100.00;101257.06;5095361;28;20476;-76
2024/02/17 07:37:47;;;;;;;3.63;2.38;;;;;;;10.01;100.00;101258.72;5112692;28;20032;-76
2024/02/17 07:40:12;;;;;;;3.42;2.35;;;;;;;10.02;100.00;101257.72;5112222;28;20039;-76
2024/02/17 07:42:38;;;;;;;3.85;1.50;;;;;;;10.00;100.00;101256.19;5096156;28;20051;-76
2024/02/17 07:45:04;;;;;;;1.92;1.40;;;;;;;10.02;100.00;101259.56;5099162;28;20027;-76
2024/02/17 07:47:33;;;;;;;3.85;2.72;;;;;;;10.02;100.00;101263.09;5116016;28;20456;-76
2024/02/17 07:50:00;;;;;;;3.10;1.77;;;;;;;10.03;100.00;101261.25;5116301;28;20038;-76
2024/02/17 07:52:25;;;;;;;2.08;1.65;;;;;;;10.01;100.00;101260.59;5065164;28;20028;-76
2024/02/17 07:54:51;;;;;;;1.52;1.20;;;;;;;10.02;100.00;101252.34;5098638;28;20038;-76
2024/02/17 07:57:17;;;;;;;1.20;1.10;;;;;;;10.01;100.00;101256.03;5115720;28;20032;-76
2024/02/17 07:59:43;;;;;;;1.38;1.08;;;;;;;10.02;100.00;101259.56;5099084;28;20032;-76
2024/02/17 08:02:08;;;;;;;1.35;1.23;;;;;;;10.02;100.00;101271.16;5098878;28;20039;-76
2024/02/17 08:04:34;;;;;;;2.95;2.15;;;;;;;10.02;100.00;101267.63;5098157;28;20031;-76
2024/02/17 08:07:00;;;;;;;4.90;2.63;;;;;;;10.03;100.00;101263.94;5098073;28;20031;-76
2024/02/17 08:09:25;;;;;;;1.83;1.30;;;;;;;10.01;100.00;101266.78;5115178;28;20038;-76
2024/02/17 08:11:54;;;;;;;2.83;2.15;;;;;;;10.02;100.00;101257.72;5116346;28;20475;-76
2024/02/17 08:14:20;;;;;;;2.78;2.10;;;;;;;10.03;100.00;101255.88;5114861;28;20028;-76
2024/02/17 08:16:47;;;;;;;1.25;1.13;;;;;;;10.03;100.00;101261.25;5098368;28;20028;-76
2024/02/17 08:19:13;;;;;;;0.50;0.50;;;;;;;10.00;100.00;101254.38;5097608;28;20073;-76
2024/02/17 08:21:39;;;;;;;2.22;0.70;;;;;;;10.02;100.00;101246.13;5098212;28;20059;-75
2024/02/17 08:24:05;;;;;;;1.13;1.02;;;;;;;10.04;100.00;101249.50;5081202;28;20024;-76
2024/02/17 08:26:32;;;;;;;1.77;1.33;;;;;;;10.04;100.00;101234.22;5097761;28;20039;-76
2024/02/17 08:28:58;;;;;;;1.45;1.08;;;;;;;10.05;100.00;101238.59;5098032;28;20092;-76
2024/02/17 08:31:23;;;;;;;1.65;1.35;;;;;;;10.05;100.00;101238.59;5081229;28;20031;-76
2024/02/17 08:33:49;;;;;;;1.48;1.27;;;;;;;10.03;100.00;101240.63;5081016;28;20035;-75
2024/02/17 08:36:16;;;;;;;3.63;2.05;;;;;;;10.04;100.00;101236.91;5115901;28;20023;-76
2024/02/17 08:38:41;;;;;;;2.70;1.63;;;;;;;10.04;100.00;101236.91;5098155;28;20031;-76
2024/02/17 08:41:07;;;;;;;4.25;1.77;;;;;;;10.07;100.00;101254.56;5097553;28;20028;-76
2024/02/17 08:43:32;;;;;;;1.63;1.23;;;;;;;10.06;100.00;101244.81;5114223;28;20055;-76
2024/02/17 08:45:58;;;;;;;0.77;0.77;;;;;;;10.06;100.00;101258.25;5097679;28;20055;-76
2024/02/17 08:48:24;;;;;;;1.17;1.05;;;;;;;10.07;100.00;101244.66;5097953;28;20031;-76
2024/02/17 08:50:51;;;;;;;2.60;1.00;;;;;;;10.06;100.00;101234.09;5097775;28;20031;-76
2024/02/17 08:53:18;;;;;;;0.60;0.60;;;;;;;10.08;100.00;101243.66;5081000;28;20360;-76
2024/02/17 08:55:43;;;;;;;0.85;0.73;;;;;;;10.08;100.00;101238.28;5079802;28;20035;-76
2024/02/17 08:58:09;;;;;;;1.48;1.20;;;;;;;10.07;100.00;101231.22;5080524;28;20080;-77
2024/02/17 09:00:36;;;;;;;2.45;1.52;;;;;;;10.09;100.00;101236.44;5097730;28;20024;-76
2024/02/17 09:03:02;;;;;;;1.85;1.10;;;;;;;10.06;100.00;101226.03;5114652;28;20500;-76
2024/02/17 09:05:28;;;;;;;1.27;1.02;;;;;;;10.05;100.00;101225.16;5114398;28;20051;-76
2024/02/17 09:07:54;;;;;;;1.00;0.90;;;;;;;10.02;100.00;101206.66;5113782;28;20019;-76
2024/02/17 09:10:20;;;;;;;1.55;1.05;;;;;;;9.99;100.00;101190.88;5097170;28;20041;-76
2024/02/17 09:12:45;;;;;;;0.85;0.85;;;;;;;10.03;100.00;101183.31;5097466;28;20066;-76
2024/02/17 09:15:11;;;;;;;1.05;0.88;;;;;;;10.04;100.00;101171.59;5113924;28;20024;-76
2024/02/17 09:17:37;;;;;;;1.60;1.20;;;;;;;10.04;100.00;101152.78;5097405;28;20035;-76
2024/02/17 09:20:06;;;;;;;1.50;1.20;;;;;;;10.02;100.00;101136.81;5080188;28;20050;-77
2024/02/17 09:22:32;;;;;;;4.50;1.15;;;;;;;10.05;100.00;101109.63;5097394;28;20043;-76
2024/02/17 09:24:57;;;;;;;1.40;1.05;;;;;;;10.05;100.00;101076.53;5080395;28;20043;-76
2024/02/17 09:27:23;;;;;;;0.70;0.68;;;;;;;10.06;100.00;101072.88;5080415;28;20444;-76
2024/02/17 09:29:49;;;;;;;0.90;0.73;;;;;;;10.05;100.00;101074.69;5080575;28;20134;-76
2024/02/17 09:32:14;;;;;;;0.75;0.75;;;;;;;10.09;100.00;101084.13;5113677;28;20456;-76
2024/02/17 09:34:40;;;;;;;0.70;0.70;;;;;;;10.12;100.00;101073.03;5113609;28;20118;-76
2024/02/17 09:37:10;;;;;;;1.50;0.80;;;;;;;10.16;100.00;101078.94;5079962;28;20114;-76
2024/02/17 09:39:40;;;;;;;2.47;1.80;;;;;;;10.18;100.00;101058.09;5097255;28;20032;-76
2024/02/17 09:42:09;;;;;;;0.77;0.77;;;;;;;10.21;100.00;101044.31;5113525;28;20059;-76
2024/02/17 09:44:34;;;;;;;0.80;0.70;;;;;;;10.22;100.00;101029.91;5079538;28;20364;-76
2024/02/17 09:47:00;;;;;;;1.02;0.90;;;;;;;10.24;100.00;101035.09;5079595;28;20068;-78
2024/02/17 09:49:26;;;;;;;0.80;0.75;;;;;;;10.25;100.00;101031.41;5096233;28;20027;-76
2024/02/17 09:51:53;;;;;;;0.73;0.73;;;;;;;10.30;100.00;101029.09;5079340;28;20369;-77
2024/02/17 09:54:21;;;;;;;0.50;0.50;;;;;;;10.38;100.00;101021.03;5096614;28;20468;-77
2024/02/17 09:56:48;;;;;;;1.25;1.15;;;;;;;10.49;100.00;101034.13;5096930;28;20035;-77
2024/02/17 09:59:14;;;;;;;0.70;0.70;;;;;;;10.60;100.00;101048.25;5080038;28;20035;-77
2024/02/17 10:01:41;;;;;;;0.77;0.70;;;;;;;10.71;100.00;101072.94;5113261;28;20387;-76
2024/02/17 10:04:07;;;;;;;0.82;0.60;;;;;;;10.82;100.00;101092.44;5079512;28;20034;-76
2024/02/17 10:06:33;;;;;;;0.60;0.60;;;;;;;10.99;100.00;101083.34;5079498;28;20097;-76
2024/02/17 10:08:59;;;;;;;1.00;0.90;;;;;;;11.15;100.00;101104.00;5079734;28;20110;-77
2024/02/17 10:11:25;;;;;;;0.70;0.70;;;;;;;11.31;100.00;101105.81;5079747;28;20122;-77
2024/02/17 10:14:02;;;;;;;0.70;0.70;;;;;;;11.42;100.00;101137.75;5079145;28;20118;-77
2024/02/17 10:16:29;;;;;;;1.55;0.95;;;;;;;11.48;100.00;101164.00;5096303;28;20027;-76
2024/02/17 10:18:57;;;;;;;0.65;0.65;;;;;;;11.47;100.00;101235.03;5096139;28;20032;-76
2024/02/17 10:21:23;;;;;;;0.60;0.60;;;;;;;11.32;100.00;101264.47;5079607;28;20031;-77
2024/02/17 10:23:52;;;;;;;0.70;0.70;;;;;;;11.13;100.00;101254.88;5095972;28;20039;-77
2024/02/17 10:26:18;;;;;;;2.22;1.70;;;;;;;11.07;100.00;101265.50;5096628;28;20165;-76
2024/02/17 10:28:57;;;;;;;0.60;0.60;;;;;;;11.01;100.00;101267.00;5113262;28;20536;-77
2024/02/17 10:31:24;;;;;;;1.83;1.00;;;;;;;10.98;100.00;101252.03;5079425;28;20039;-76
2024/02/17 10:33:49;;;;;;;0.98;0.90;;;;;;;10.99;100.00;101251.00;5079198;28;20430;-76
2024/02/17 10:36:19;;;;;;;0.60;0.60;;;;;;;11.02;100.00;101246.31;5079386;28;20524;-76
2024/02/17 10:38:45;;;;;;;1.30;1.13;;;;;;;11.06;100.00;101250.34;5096676;28;20058;-77
2024/02/17 10:41:11;;;;;;;0.75;0.68;;;;;;;11.10;100.00;101251.69;5079424;28;20032;-76
2024/02/17 10:43:41;;;;;;;0.70;0.70;;;;;;;11.14;100.00;101250.34;5079026;28;20031;-76
2024/02/17 10:46:24;;;;;;;0.50;0.50;;;;;;;11.28;100.00;101247.00;5113033;28;20487;-77
2024/02/17 10:48:58;;;;;;;1.10;1.00;;;;;;;11.38;100.00;101242.28;5113341;28;20487;-76
2024/02/17 10:51:24;;;;;;;1.05;0.73;;;;;;;11.32;100.00;101247.47;5079251;28;20031;-76
2024/02/17 10:53:56;;;;;;;0.82;0.70;;;;;;;11.31;100.00;101245.81;5095845;28;20023;-77
2024/02/17 10:56:22;;;;;;;0.95;0.70;;;;;;;11.36;100.00;101238.91;5096324;28;20218;-77
2024/02/17 10:58:48;;;;;;;0.55;0.52;;;;;;;11.45;100.00;101227.09;5096051;28;20432;-77
2024/02/17 11:01:16;;;;;;;0.85;0.70;;;;;;;11.60;100.00;101229.13;5095837;28;20073;-77
2024/02/17 11:03:44;;;;;;;0.60;0.60;;;;;;;11.56;100.00;101230.47;5096431;28;20112;-76
2024/02/17 11:06:15;;;;;;;0.50;0.50;;;;;;;11.48;100.00;101231.31;5112641;28;20028;-76
2024/02/17 11:08:41;;;;;;;0.50;0.50;;;;;;;11.40;100.00;101237.53;5079752;28;20036;-76
2024/02/17 11:11:23;;;;;;;1.15;0.80;;;;;;;11.49;100.00;101237.56;5062962;28;20208;-76
2024/02/17 11:13:50;;;;;;;;;;;;;;;11.64;100.00;101225.06;5112920;28;20459;-76
2024/02/17 11:16:17;;;;;;;0.50;0.50;;;;;;;11.73;100.00;101226.75;5112757;28;19918;-76
2024/02/17 11:18:46;;;;;;;0.40;0.40;;;;;;;11.83;100.00;101234.63;5098031;28;20036;-77
2024/02/17 11:21:11;;;;;;;0.50;0.50;;;;;;;11.92;100.00;101238.19;5099959;28;20471;-77